sensor_id;sensor_type;location;lat;lon;timestamp;P1;durP1;ratioP1;P2;durP2;ratioP2
6671;SDS011;3372;48.690;12.362;2022-12-13T00:00:41;27.67;;;14.90;;
6671;SDS011;3372;48.690;12.362;2022-12-13T00:03:07;34.57;;;14.60;;
6671;SDS011;3372;48.690;12.362;2022-12-13T00:05:33;28.43;;;15.50;;
6671;SDS011;3372;48.690;12.362;2022-12-13T00:07:59;36.00;;;16.40;;
6671;SDS011;3372;48.690;12.362;2022-12-13T00:10:25;34.23;;;14.93;;
6671;SDS011;3372;48.690;12.362;2022-12-13T00:12:51;39.70;;;16.50;;
6671;SDS011;3372;48.690;12.362;2022-12-13T00:15:16;30.20;;;15.47;;
6671;SDS011;3372;48.690;12.362;2022-12-13T00:17:42;36.40;;;16.80;;
6671;SDS011;3372;48.690;12.362;2022-12-13T00:20:09;27.30;;;14.23;;
6671;SDS011;3372;48.690;12.362;2022-12-13T00:22:35;33.43;;;16.70;;
6671;SDS011;3372;48.690;12.362;2022-12-13T00:25:00;35.40;;;16.20;;
6671;SDS011;3372;48.690;12.362;2022-12-13T00:27:26;30.70;;;15.30;;
6671;SDS011;3372;48.690;12.362;2022-12-13T00:29:52;33.40;;;14.70;;
6671;SDS011;3372;48.690;12.362;2022-12-13T00:32:17;35.07;;;15.40;;
6671;SDS011;3372;48.690;12.362;2022-12-13T00:34:43;30.57;;;14.30;;
6671;SDS011;3372;48.690;12.362;2022-12-13T00:37:08;32.17;;;15.10;;
6671;SDS011;3372;48.690;12.362;2022-12-13T00:39:34;32.70;;;15.90;;
6671;SDS011;3372;48.690;12.362;2022-12-13T00:42:00;33.23;;;15.60;;
6671;SDS011;3372;48.690;12.362;2022-12-13T00:44:25;30.77;;;14.87;;
6671;SDS011;3372;48.690;12.362;2022-12-13T00:46:51;32.73;;;15.87;;
6671;SDS011;3372;48.690;12.362;2022-12-13T00:49:17;35.63;;;16.27;;
6671;SDS011;3372;48.690;12.362;2022-12-13T00:51:44;36.73;;;15.37;;
6671;SDS011;3372;48.690;12.362;2022-12-13T00:54:13;33.53;;;15.97;;
6671;SDS011;3372;48.690;12.362;2022-12-13T00:56:39;34.63;;;16.87;;
6671;SDS011;3372;48.690;12.362;2022-12-13T00:59:05;34.37;;;15.60;;
6671;SDS011;3372;48.690;12.362;2022-12-13T01:01:31;31.97;;;15.53;;
6671;SDS011;3372;48.690;12.362;2022-12-13T01:03:59;36.73;;;15.67;;
6671;SDS011;3372;48.690;12.362;2022-12-13T01:09:03;40.10;;;18.50;;
6671;SDS011;3372;48.690;12.362;2022-12-13T01:11:30;35.80;;;17.10;;
6671;SDS011;3372;48.690;12.362;2022-12-13T01:13:56;38.70;;;17.80;;
6671;SDS011;3372;48.690;12.362;2022-12-13T01:16:21;36.37;;;15.57;;
6671;SDS011;3372;48.690;12.362;2022-12-13T01:18:47;34.70;;;16.80;;
6671;SDS011;3372;48.690;12.362;2022-12-13T01:21:14;39.60;;;16.00;;
6671;SDS011;3372;48.690;12.362;2022-12-13T01:23:41;32.03;;;15.47;;
6671;SDS011;3372;48.690;12.362;2022-12-13T01:26:08;36.47;;;16.20;;
6671;SDS011;3372;48.690;12.362;2022-12-13T01:28:36;33.70;;;16.53;;
6671;SDS011;3372;48.690;12.362;2022-12-13T01:31:03;43.60;;;19.77;;
6671;SDS011;3372;48.690;12.362;2022-12-13T01:33:30;33.93;;;17.27;;
6671;SDS011;3372;48.690;12.362;2022-12-13T01:35:59;34.30;;;16.30;;
6671;SDS011;3372;48.690;12.362;2022-12-13T01:38:26;34.03;;;16.37;;
6671;SDS011;3372;48.690;12.362;2022-12-13T01:40:51;33.10;;;16.30;;
6671;SDS011;3372;48.690;12.362;2022-12-13T01:43:24;31.67;;;16.10;;
6671;SDS011;3372;48.690;12.362;2022-12-13T01:46:05;31.33;;;15.57;;
6671;SDS011;3372;48.690;12.362;2022-12-13T01:48:32;36.93;;;16.20;;
6671;SDS011;3372;48.690;12.362;2022-12-13T01:51:04;35.80;;;16.70;;
6671;SDS011;3372;48.690;12.362;2022-12-13T01:53:33;32.67;;;15.53;;
6671;SDS011;3372;48.690;12.362;2022-12-13T01:56:02;34.87;;;16.80;;
6671;SDS011;3372;48.690;12.362;2022-12-13T01:58:36;33.87;;;16.50;;
6671;SDS011;3372;48.690;12.362;2022-12-13T02:01:03;34.43;;;15.90;;
6671;SDS011;3372;48.690;12.362;2022-12-13T02:03:29;31.20;;;17.93;;
6671;SDS011;3372;48.690;12.362;2022-12-13T02:06:01;37.37;;;17.23;;
6671;SDS011;3372;48.690;12.362;2022-12-13T02:08:49;35.47;;;16.43;;
6671;SDS011;3372;48.690;12.362;2022-12-13T02:11:14;41.53;;;18.57;;
6671;SDS011;3372;48.690;12.362;2022-12-13T02:13:40;40.80;;;18.87;;
6671;SDS011;3372;48.690;12.362;2022-12-13T02:21:34;43.23;;;19.63;;
6671;SDS011;3372;48.690;12.362;2022-12-13T02:29:51;49.20;;;20.17;;
6671;SDS011;3372;48.690;12.362;2022-12-13T02:33:37;47.77;;;19.77;;
6671;SDS011;3372;48.690;12.362;2022-12-13T02:43:48;40.43;;;18.80;;
6671;SDS011;3372;48.690;12.362;2022-12-13T02:46:38;39.40;;;19.10;;
6671;SDS011;3372;48.690;12.362;2022-12-13T02:49:12;42.27;;;19.47;;
6671;SDS011;3372;48.690;12.362;2022-12-13T02:51:40;41.90;;;18.27;;
6671;SDS011;3372;48.690;12.362;2022-12-13T02:54:07;37.87;;;17.97;;
6671;SDS011;3372;48.690;12.362;2022-12-13T02:56:33;42.47;;;19.60;;
6671;SDS011;3372;48.690;12.362;2022-12-13T02:58:59;36.30;;;16.77;;
6671;SDS011;3372;48.690;12.362;2022-12-13T03:01:32;48.90;;;18.63;;
6671;SDS011;3372;48.690;12.362;2022-12-13T03:04:30;38.87;;;17.20;;
6671;SDS011;3372;48.690;12.362;2022-12-13T03:07:41;37.50;;;16.03;;
6671;SDS011;3372;48.690;12.362;2022-12-13T03:10:17;41.40;;;16.97;;
6671;SDS011;3372;48.690;12.362;2022-12-13T03:12:53;42.23;;;17.00;;
6671;SDS011;3372;48.690;12.362;2022-12-13T03:15:49;39.93;;;16.60;;
6671;SDS011;3372;48.690;12.362;2022-12-13T03:18:21;33.20;;;16.70;;
6671;SDS011;3372;48.690;12.362;2022-12-13T03:20:55;31.87;;;15.57;;
6671;SDS011;3372;48.690;12.362;2022-12-13T03:23:23;29.73;;;14.53;;
6671;SDS011;3372;48.690;12.362;2022-12-13T03:25:53;34.80;;;15.87;;
6671;SDS011;3372;48.690;12.362;2022-12-13T03:28:22;34.13;;;16.27;;
6671;SDS011;3372;48.690;12.362;2022-12-13T03:30:48;31.90;;;15.37;;
6671;SDS011;3372;48.690;12.362;2022-12-13T03:33:14;30.60;;;15.10;;
6671;SDS011;3372;48.690;12.362;2022-12-13T03:35:39;30.67;;;14.90;;
6671;SDS011;3372;48.690;12.362;2022-12-13T03:38:06;26.03;;;13.40;;
6671;SDS011;3372;48.690;12.362;2022-12-13T03:40:32;25.63;;;12.80;;
6671;SDS011;3372;48.690;12.362;2022-12-13T03:42:58;28.73;;;13.57;;
6671;SDS011;3372;48.690;12.362;2022-12-13T03:45:24;25.30;;;12.00;;
6671;SDS011;3372;48.690;12.362;2022-12-13T03:47:50;23.73;;;13.10;;
6671;SDS011;3372;48.690;12.362;2022-12-13T03:50:16;29.60;;;12.97;;
6671;SDS011;3372;48.690;12.362;2022-12-13T03:52:41;28.57;;;13.30;;
6671;SDS011;3372;48.690;12.362;2022-12-13T03:55:08;32.47;;;16.87;;
6671;SDS011;3372;48.690;12.362;2022-12-13T03:57:34;24.90;;;13.80;;
6671;SDS011;3372;48.690;12.362;2022-12-13T04:00:00;37.63;;;17.97;;
6671;SDS011;3372;48.690;12.362;2022-12-13T04:02:25;30.60;;;16.77;;
6671;SDS011;3372;48.690;12.362;2022-12-13T04:04:51;29.30;;;14.70;;
6671;SDS011;3372;48.690;12.362;2022-12-13T04:07:16;28.87;;;14.17;;
6671;SDS011;3372;48.690;12.362;2022-12-13T04:09:42;27.43;;;13.80;;
6671;SDS011;3372;48.690;12.362;2022-12-13T04:12:08;32.20;;;14.47;;
6671;SDS011;3372;48.690;12.362;2022-12-13T04:14:52;32.10;;;14.43;;
6671;SDS011;3372;48.690;12.362;2022-12-13T04:17:17;28.33;;;13.37;;
6671;SDS011;3372;48.690;12.362;2022-12-13T04:19:43;29.73;;;13.77;;
6671;SDS011;3372;48.690;12.362;2022-12-13T04:22:08;28.20;;;15.30;;
6671;SDS011;3372;48.690;12.362;2022-12-13T04:24:34;25.70;;;13.23;;
6671;SDS011;3372;48.690;12.362;2022-12-13T04:27:01;30.77;;;14.63;;
6671;SDS011;3372;48.690;12.362;2022-12-13T04:29:27;36.57;;;16.40;;
6671;SDS011;3372;48.690;12.362;2022-12-13T04:31:54;33.97;;;15.00;;
6671;SDS011;3372;48.690;12.362;2022-12-13T04:34:19;34.77;;;15.43;;
6671;SDS011;3372;48.690;12.362;2022-12-13T04:36:45;35.57;;;15.40;;
6671;SDS011;3372;48.690;12.362;2022-12-13T04:39:10;36.10;;;16.30;;
6671;SDS011;3372;48.690;12.362;2022-12-13T04:41:36;33.20;;;16.40;;
6671;SDS011;3372;48.690;12.362;2022-12-13T04:44:03;29.50;;;14.33;;
6671;SDS011;3372;48.690;12.362;2022-12-13T04:46:30;30.90;;;14.63;;
6671;SDS011;3372;48.690;12.362;2022-12-13T04:48:56;39.67;;;17.10;;
6671;SDS011;3372;48.690;12.362;2022-12-13T04:51:21;41.03;;;16.63;;
6671;SDS011;3372;48.690;12.362;2022-12-13T04:53:47;38.23;;;15.80;;
6671;SDS011;3372;48.690;12.362;2022-12-13T04:56:13;34.80;;;14.77;;
6671;SDS011;3372;48.690;12.362;2022-12-13T04:58:38;37.60;;;16.83;;
6671;SDS011;3372;48.690;12.362;2022-12-13T05:01:07;38.83;;;16.50;;
6671;SDS011;3372;48.690;12.362;2022-12-13T05:03:35;37.97;;;17.73;;
6671;SDS011;3372;48.690;12.362;2022-12-13T05:06:08;44.83;;;19.13;;
6671;SDS011;3372;48.690;12.362;2022-12-13T05:08:36;35.03;;;16.20;;
6671;SDS011;3372;48.690;12.362;2022-12-13T05:11:05;34.23;;;15.47;;
6671;SDS011;3372;48.690;12.362;2022-12-13T05:13:32;36.93;;;17.63;;
6671;SDS011;3372;48.690;12.362;2022-12-13T05:15:59;43.00;;;17.43;;
6671;SDS011;3372;48.690;12.362;2022-12-13T05:18:26;37.77;;;18.70;;
6671;SDS011;3372;48.690;12.362;2022-12-13T05:20:52;37.60;;;17.57;;
6671;SDS011;3372;48.690;12.362;2022-12-13T05:23:19;38.17;;;17.47;;
6671;SDS011;3372;48.690;12.362;2022-12-13T05:25:47;45.07;;;19.50;;
6671;SDS011;3372;48.690;12.362;2022-12-13T05:28:12;39.20;;;18.03;;
6671;SDS011;3372;48.690;12.362;2022-12-13T05:30:38;52.83;;;21.77;;
6671;SDS011;3372;48.690;12.362;2022-12-13T05:33:05;40.17;;;18.10;;
6671;SDS011;3372;48.690;12.362;2022-12-13T05:35:30;40.30;;;18.60;;
6671;SDS011;3372;48.690;12.362;2022-12-13T05:37:56;45.90;;;18.47;;
6671;SDS011;3372;48.690;12.362;2022-12-13T05:40:22;39.67;;;18.70;;
6671;SDS011;3372;48.690;12.362;2022-12-13T05:42:49;33.73;;;15.70;;
6671;SDS011;3372;48.690;12.362;2022-12-13T05:45:16;37.53;;;16.33;;
6671;SDS011;3372;48.690;12.362;2022-12-13T05:47:42;38.27;;;16.50;;
6671;SDS011;3372;48.690;12.362;2022-12-13T05:50:08;43.17;;;20.00;;
6671;SDS011;3372;48.690;12.362;2022-12-13T05:52:34;46.90;;;22.27;;
6671;SDS011;3372;48.690;12.362;2022-12-13T05:55:00;48.50;;;21.10;;
6671;SDS011;3372;48.690;12.362;2022-12-13T05:57:26;105.90;;;40.30;;
6671;SDS011;3372;48.690;12.362;2022-12-13T05:59:51;76.87;;;28.90;;
6671;SDS011;3372;48.690;12.362;2022-12-13T06:02:17;101.47;;;38.07;;
6671;SDS011;3372;48.690;12.362;2022-12-13T06:04:42;162.53;;;54.67;;
6671;SDS011;3372;48.690;12.362;2022-12-13T06:07:09;130.10;;;46.00;;
6671;SDS011;3372;48.690;12.362;2022-12-13T06:09:35;100.50;;;43.40;;
6671;SDS011;3372;48.690;12.362;2022-12-13T06:12:00;108.13;;;39.73;;
6671;SDS011;3372;48.690;12.362;2022-12-13T06:14:26;97.70;;;38.10;;
6671;SDS011;3372;48.690;12.362;2022-12-13T06:16:52;61.20;;;26.17;;
6671;SDS011;3372;48.690;12.362;2022-12-13T06:19:18;49.70;;;22.70;;
6671;SDS011;3372;48.690;12.362;2022-12-13T06:21:48;63.63;;;25.70;;
6671;SDS011;3372;48.690;12.362;2022-12-13T06:24:15;48.93;;;22.80;;
6671;SDS011;3372;48.690;12.362;2022-12-13T06:26:42;57.90;;;26.23;;
6671;SDS011;3372;48.690;12.362;2022-12-13T06:29:07;53.43;;;25.40;;
6671;SDS011;3372;48.690;12.362;2022-12-13T06:31:34;59.30;;;24.97;;
6671;SDS011;3372;48.690;12.362;2022-12-13T06:34:03;50.23;;;22.40;;
6671;SDS011;3372;48.690;12.362;2022-12-13T06:36:30;48.07;;;21.77;;
6671;SDS011;3372;48.690;12.362;2022-12-13T06:39:00;61.50;;;25.50;;
6671;SDS011;3372;48.690;12.362;2022-12-13T06:41:30;51.33;;;23.70;;
6671;SDS011;3372;48.690;12.362;2022-12-13T06:43:56;51.00;;;22.33;;
6671;SDS011;3372;48.690;12.362;2022-12-13T06:46:22;46.23;;;19.17;;
6671;SDS011;3372;48.690;12.362;2022-12-13T06:48:48;45.33;;;19.40;;
6671;SDS011;3372;48.690;12.362;2022-12-13T06:51:14;46.77;;;19.07;;
6671;SDS011;3372;48.690;12.362;2022-12-13T06:53:40;45.30;;;19.67;;
6671;SDS011;3372;48.690;12.362;2022-12-13T06:56:10;50.87;;;21.20;;
6671;SDS011;3372;48.690;12.362;2022-12-13T06:58:38;52.17;;;21.50;;
6671;SDS011;3372;48.690;12.362;2022-12-13T07:01:12;72.77;;;30.80;;
6671;SDS011;3372;48.690;12.362;2022-12-13T07:03:39;47.80;;;20.03;;
6671;SDS011;3372;48.690;12.362;2022-12-13T07:06:06;51.67;;;20.47;;
6671;SDS011;3372;48.690;12.362;2022-12-13T07:08:49;47.37;;;19.07;;
6671;SDS011;3372;48.690;12.362;2022-12-13T07:11:17;46.33;;;18.10;;
6671;SDS011;3372;48.690;12.362;2022-12-13T07:13:45;41.60;;;19.60;;
6671;SDS011;3372;48.690;12.362;2022-12-13T07:16:11;52.83;;;20.20;;
6671;SDS011;3372;48.690;12.362;2022-12-13T07:18:37;43.73;;;20.10;;
6671;SDS011;3372;48.690;12.362;2022-12-13T07:21:04;45.47;;;19.13;;
6671;SDS011;3372;48.690;12.362;2022-12-13T07:23:30;55.77;;;21.70;;
6671;SDS011;3372;48.690;12.362;2022-12-13T07:25:56;43.13;;;18.53;;
6671;SDS011;3372;48.690;12.362;2022-12-13T07:28:21;46.40;;;19.97;;
6671;SDS011;3372;48.690;12.362;2022-12-13T07:30:47;41.13;;;18.43;;
6671;SDS011;3372;48.690;12.362;2022-12-13T07:33:13;42.23;;;18.90;;
6671;SDS011;3372;48.690;12.362;2022-12-13T07:35:38;43.40;;;18.10;;
6671;SDS011;3372;48.690;12.362;2022-12-13T07:38:05;34.70;;;15.37;;
6671;SDS011;3372;48.690;12.362;2022-12-13T07:40:33;39.77;;;18.63;;
6671;SDS011;3372;48.690;12.362;2022-12-13T07:42:59;40.70;;;17.20;;
6671;SDS011;3372;48.690;12.362;2022-12-13T07:45:25;38.53;;;16.13;;
6671;SDS011;3372;48.690;12.362;2022-12-13T07:47:50;39.47;;;16.73;;
6671;SDS011;3372;48.690;12.362;2022-12-13T07:50:16;44.17;;;18.47;;
6671;SDS011;3372;48.690;12.362;2022-12-13T07:52:45;62.87;;;21.23;;
6671;SDS011;3372;48.690;12.362;2022-12-13T07:55:14;49.37;;;21.00;;
6671;SDS011;3372;48.690;12.362;2022-12-13T07:57:41;47.27;;;20.67;;
6671;SDS011;3372;48.690;12.362;2022-12-13T08:00:10;46.80;;;18.57;;
6671;SDS011;3372;48.690;12.362;2022-12-13T08:02:36;45.23;;;19.17;;
6671;SDS011;3372;48.690;12.362;2022-12-13T08:05:04;50.60;;;21.23;;
6671;SDS011;3372;48.690;12.362;2022-12-13T08:07:30;53.93;;;20.60;;
6671;SDS011;3372;48.690;12.362;2022-12-13T08:09:56;56.47;;;23.30;;
6671;SDS011;3372;48.690;12.362;2022-12-13T08:12:22;46.27;;;21.60;;
6671;SDS011;3372;48.690;12.362;2022-12-13T08:14:47;46.77;;;21.40;;
6671;SDS011;3372;48.690;12.362;2022-12-13T08:17:13;47.50;;;22.90;;
6671;SDS011;3372;48.690;12.362;2022-12-13T08:19:38;47.27;;;21.20;;
6671;SDS011;3372;48.690;12.362;2022-12-13T08:22:04;61.10;;;26.53;;
6671;SDS011;3372;48.690;12.362;2022-12-13T08:24:30;48.70;;;21.90;;
6671;SDS011;3372;48.690;12.362;2022-12-13T08:26:56;52.27;;;24.87;;
6671;SDS011;3372;48.690;12.362;2022-12-13T08:29:27;45.80;;;20.87;;
6671;SDS011;3372;48.690;12.362;2022-12-13T08:31:58;41.10;;;20.93;;
6671;SDS011;3372;48.690;12.362;2022-12-13T08:34:25;41.37;;;17.80;;
6671;SDS011;3372;48.690;12.362;2022-12-13T08:36:51;40.30;;;18.90;;
6671;SDS011;3372;48.690;12.362;2022-12-13T08:39:17;29.43;;;14.27;;
6671;SDS011;3372;48.690;12.362;2022-12-13T08:41:56;31.83;;;15.87;;
6671;SDS011;3372;48.690;12.362;2022-12-13T08:44:22;28.83;;;13.70;;
6671;SDS011;3372;48.690;12.362;2022-12-13T08:46:48;34.23;;;15.67;;
6671;SDS011;3372;48.690;12.362;2022-12-13T08:49:13;27.77;;;14.23;;
6671;SDS011;3372;48.690;12.362;2022-12-13T08:51:39;26.00;;;13.57;;
6671;SDS011;3372;48.690;12.362;2022-12-13T08:54:04;28.50;;;13.73;;
6671;SDS011;3372;48.690;12.362;2022-12-13T08:56:30;26.03;;;13.53;;
6671;SDS011;3372;48.690;12.362;2022-12-13T08:58:56;25.33;;;12.77;;
6671;SDS011;3372;48.690;12.362;2022-12-13T09:01:21;24.27;;;13.90;;
6671;SDS011;3372;48.690;12.362;2022-12-13T09:03:47;30.33;;;14.80;;
6671;SDS011;3372;48.690;12.362;2022-12-13T09:06:14;25.30;;;13.03;;
6671;SDS011;3372;48.690;12.362;2022-12-13T09:08:41;25.83;;;12.33;;
6671;SDS011;3372;48.690;12.362;2022-12-13T09:11:08;24.90;;;13.53;;
6671;SDS011;3372;48.690;12.362;2022-12-13T09:13:35;38.77;;;21.47;;
6671;SDS011;3372;48.690;12.362;2022-12-13T09:16:04;49.90;;;25.90;;
6671;SDS011;3372;48.690;12.362;2022-12-13T09:18:32;45.13;;;21.63;;
6671;SDS011;3372;48.690;12.362;2022-12-13T09:20:57;60.33;;;29.40;;
6671;SDS011;3372;48.690;12.362;2022-12-13T09:23:23;39.17;;;20.13;;
6671;SDS011;3372;48.690;12.362;2022-12-13T09:25:55;51.77;;;23.63;;
6671;SDS011;3372;48.690;12.362;2022-12-13T09:28:24;41.60;;;21.40;;
6671;SDS011;3372;48.690;12.362;2022-12-13T09:30:50;38.87;;;19.20;;
6671;SDS011;3372;48.690;12.362;2022-12-13T09:33:16;50.30;;;22.70;;
6671;SDS011;3372;48.690;12.362;2022-12-13T09:35:42;30.53;;;16.50;;
6671;SDS011;3372;48.690;12.362;2022-12-13T09:38:07;56.57;;;26.40;;
6671;SDS011;3372;48.690;12.362;2022-12-13T09:40:33;44.97;;;24.20;;
6671;SDS011;3372;48.690;12.362;2022-12-13T09:43:01;50.70;;;26.40;;
6671;SDS011;3372;48.690;12.362;2022-12-13T09:45:28;87.03;;;37.83;;
6671;SDS011;3372;48.690;12.362;2022-12-13T09:47:53;76.43;;;33.23;;
6671;SDS011;3372;48.690;12.362;2022-12-13T09:50:22;44.30;;;21.63;;
6671;SDS011;3372;48.690;12.362;2022-12-13T09:52:49;43.07;;;21.63;;
6671;SDS011;3372;48.690;12.362;2022-12-13T09:55:21;40.50;;;22.73;;
6671;SDS011;3372;48.690;12.362;2022-12-13T09:57:50;30.33;;;17.33;;
6671;SDS011;3372;48.690;12.362;2022-12-13T10:00:17;31.30;;;16.17;;
6671;SDS011;3372;48.690;12.362;2022-12-13T10:02:49;32.97;;;16.23;;
6671;SDS011;3372;48.690;12.362;2022-12-13T10:08:05;27.73;;;15.53;;
6671;SDS011;3372;48.690;12.362;2022-12-13T10:10:32;22.33;;;12.73;;
6671;SDS011;3372;48.690;12.362;2022-12-13T10:13:02;25.00;;;13.87;;
6671;SDS011;3372;48.690;12.362;2022-12-13T10:15:41;26.17;;;13.63;;
6671;SDS011;3372;48.690;12.362;2022-12-13T10:18:12;24.77;;;13.07;;
6671;SDS011;3372;48.690;12.362;2022-12-13T10:20:42;25.30;;;13.03;;
6671;SDS011;3372;48.690;12.362;2022-12-13T10:23:08;27.70;;;14.40;;
6671;SDS011;3372;48.690;12.362;2022-12-13T10:25:51;26.53;;;13.50;;
6671;SDS011;3372;48.690;12.362;2022-12-13T10:28:23;29.90;;;14.60;;
6671;SDS011;3372;48.690;12.362;2022-12-13T10:30:52;23.40;;;13.33;;
6671;SDS011;3372;48.690;12.362;2022-12-13T10:33:19;27.93;;;14.20;;
6671;SDS011;3372;48.690;12.362;2022-12-13T10:36:00;30.20;;;15.57;;
6671;SDS011;3372;48.690;12.362;2022-12-13T10:38:46;32.00;;;13.10;;
6671;SDS011;3372;48.690;12.362;2022-12-13T10:41:54;26.87;;;13.57;;
6671;SDS011;3372;48.690;12.362;2022-12-13T10:44:06;31.20;;;15.50;;
6671;SDS011;3372;48.690;12.362;2022-12-13T10:46:35;26.50;;;12.93;;
6671;SDS011;3372;48.690;12.362;2022-12-13T10:49:02;22.50;;;13.23;;
6671;SDS011;3372;48.690;12.362;2022-12-13T10:51:36;30.10;;;15.67;;
6671;SDS011;3372;48.690;12.362;2022-12-13T10:54:03;28.50;;;14.97;;
6671;SDS011;3372;48.690;12.362;2022-12-13T10:56:37;22.90;;;13.63;;
6671;SDS011;3372;48.690;12.362;2022-12-13T11:01:46;25.37;;;12.93;;
6671;SDS011;3372;48.690;12.362;2022-12-13T11:07:20;26.60;;;13.50;;
6671;SDS011;3372;48.690;12.362;2022-12-13T11:09:46;20.93;;;11.77;;
6671;SDS011;3372;48.690;12.362;2022-12-13T11:12:12;19.23;;;10.77;;
6671;SDS011;3372;48.690;12.362;2022-12-13T11:14:53;20.30;;;10.40;;
6671;SDS011;3372;48.690;12.362;2022-12-13T11:17:23;21.07;;;11.67;;
6671;SDS011;3372;48.690;12.362;2022-12-13T11:19:51;20.83;;;11.57;;
6671;SDS011;3372;48.690;12.362;2022-12-13T11:22:28;18.63;;;9.57;;
6671;SDS011;3372;48.690;12.362;2022-12-13T11:25:00;15.53;;;8.20;;
6671;SDS011;3372;48.690;12.362;2022-12-13T11:30:10;14.73;;;8.20;;
6671;SDS011;3372;48.690;12.362;2022-12-13T11:32:58;16.60;;;8.60;;
6671;SDS011;3372;48.690;12.362;2022-12-13T11:47:18;27.13;;;12.63;;
6671;SDS011;3372;48.690;12.362;2022-12-13T11:49:49;19.70;;;9.70;;
6671;SDS011;3372;48.690;12.362;2022-12-13T11:52:18;14.67;;;8.27;;
6671;SDS011;3372;48.690;12.362;2022-12-13T11:54:51;30.03;;;14.57;;
6671;SDS011;3372;48.690;12.362;2022-12-13T12:00:42;18.83;;;8.20;;
6671;SDS011;3372;48.690;12.362;2022-12-13T12:05:48;16.43;;;8.73;;
6671;SDS011;3372;48.690;12.362;2022-12-13T12:08:37;13.80;;;7.77;;
6671;SDS011;3372;48.690;12.362;2022-12-13T12:11:15;16.70;;;8.40;;
6671;SDS011;3372;48.690;12.362;2022-12-13T12:13:51;16.00;;;8.33;;
6671;SDS011;3372;48.690;12.362;2022-12-13T12:16:38;15.73;;;7.90;;
6671;SDS011;3372;48.690;12.362;2022-12-13T12:19:24;13.33;;;7.80;;
6671;SDS011;3372;48.690;12.362;2022-12-13T12:21:58;14.00;;;7.77;;
6671;SDS011;3372;48.690;12.362;2022-12-13T12:30:23;12.97;;;6.93;;
6671;SDS011;3372;48.690;12.362;2022-12-13T12:33:04;12.60;;;8.00;;
6671;SDS011;3372;48.690;12.362;2022-12-13T12:35:49;14.63;;;7.50;;
6671;SDS011;3372;48.690;12.362;2022-12-13T12:41:51;11.57;;;7.40;;
6671;SDS011;3372;48.690;12.362;2022-12-13T12:47:33;17.37;;;7.27;;
6671;SDS011;3372;48.690;12.362;2022-12-13T12:52:40;11.80;;;6.83;;
6671;SDS011;3372;48.690;12.362;2022-12-13T13:03:59;17.10;;;8.47;;
6671;SDS011;3372;48.690;12.362;2022-12-13T13:06:30;12.60;;;8.20;;
6671;SDS011;3372;48.690;12.362;2022-12-13T13:09:02;13.00;;;7.17;;
6671;SDS011;3372;48.690;12.362;2022-12-13T13:11:35;17.27;;;8.63;;
6671;SDS011;3372;48.690;12.362;2022-12-13T13:14:25;26.87;;;15.40;;
6671;SDS011;3372;48.690;12.362;2022-12-13T13:16:49;23.40;;;11.77;;
6671;SDS011;3372;48.690;12.362;2022-12-13T13:21:47;14.57;;;7.93;;
6671;SDS011;3372;48.690;12.362;2022-12-13T13:24:16;15.33;;;8.70;;
6671;SDS011;3372;48.690;12.362;2022-12-13T13:26:51;14.07;;;8.13;;
6671;SDS011;3372;48.690;12.362;2022-12-13T13:29:20;11.77;;;7.20;;
6671;SDS011;3372;48.690;12.362;2022-12-13T13:31:59;41.07;;;29.33;;
6671;SDS011;3372;48.690;12.362;2022-12-13T13:36:52;12.40;;;7.87;;
6671;SDS011;3372;48.690;12.362;2022-12-13T13:41:53;15.13;;;8.90;;
6671;SDS011;3372;48.690;12.362;2022-12-13T14:25:43;22.93;;;10.50;;
6671;SDS011;3372;48.690;12.362;2022-12-13T14:28:15;19.13;;;10.50;;
6671;SDS011;3372;48.690;12.362;2022-12-13T14:30:52;20.77;;;10.00;;
6671;SDS011;3372;48.690;12.362;2022-12-13T14:33:21;19.80;;;9.43;;
6671;SDS011;3372;48.690;12.362;2022-12-13T14:35:55;19.20;;;10.63;;
6671;SDS011;3372;48.690;12.362;2022-12-13T14:38:27;17.67;;;8.30;;
6671;SDS011;3372;48.690;12.362;2022-12-13T14:40:59;16.93;;;9.33;;
6671;SDS011;3372;48.690;12.362;2022-12-13T14:43:27;14.83;;;9.20;;
6671;SDS011;3372;48.690;12.362;2022-12-13T14:45:58;18.20;;;7.30;;
6671;SDS011;3372;48.690;12.362;2022-12-13T14:48:26;16.90;;;8.70;;
6671;SDS011;3372;48.690;12.362;2022-12-13T14:50:57;21.03;;;10.97;;
6671;SDS011;3372;48.690;12.362;2022-12-13T14:53:27;18.53;;;9.13;;
6671;SDS011;3372;48.690;12.362;2022-12-13T14:56:02;19.90;;;9.30;;
6671;SDS011;3372;48.690;12.362;2022-12-13T14:58:33;16.63;;;9.50;;
6671;SDS011;3372;48.690;12.362;2022-12-13T15:01:06;22.03;;;10.40;;
6671;SDS011;3372;48.690;12.362;2022-12-13T15:03:49;25.70;;;11.67;;
6671;SDS011;3372;48.690;12.362;2022-12-13T15:06:15;24.50;;;13.00;;
6671;SDS011;3372;48.690;12.362;2022-12-13T15:08:42;21.43;;;13.03;;
6671;SDS011;3372;48.690;12.362;2022-12-13T15:11:08;54.93;;;31.70;;
6671;SDS011;3372;48.690;12.362;2022-12-13T15:13:36;21.43;;;12.40;;
6671;SDS011;3372;48.690;12.362;2022-12-13T15:16:05;20.77;;;11.87;;
6671;SDS011;3372;48.690;12.362;2022-12-13T15:18:34;24.50;;;12.57;;
6671;SDS011;3372;48.690;12.362;2022-12-13T15:21:00;21.33;;;10.83;;
6671;SDS011;3372;48.690;12.362;2022-12-13T15:23:44;18.77;;;11.20;;
6671;SDS011;3372;48.690;12.362;2022-12-13T15:26:17;24.23;;;11.93;;
6671;SDS011;3372;48.690;12.362;2022-12-13T15:28:46;17.23;;;10.00;;
6671;SDS011;3372;48.690;12.362;2022-12-13T15:31:14;26.00;;;13.83;;
6671;SDS011;3372;48.690;12.362;2022-12-13T15:33:40;21.23;;;11.70;;
6671;SDS011;3372;48.690;12.362;2022-12-13T15:41:24;23.10;;;12.50;;
6671;SDS011;3372;48.690;12.362;2022-12-13T15:43:57;19.90;;;10.27;;
6671;SDS011;3372;48.690;12.362;2022-12-13T15:46:29;26.83;;;14.00;;
6671;SDS011;3372;48.690;12.362;2022-12-13T15:49:02;20.97;;;10.87;;
6671;SDS011;3372;48.690;12.362;2022-12-13T15:51:30;18.47;;;11.17;;
6671;SDS011;3372;48.690;12.362;2022-12-13T15:54:03;18.27;;;10.60;;
6671;SDS011;3372;48.690;12.362;2022-12-13T15:56:36;24.77;;;11.10;;
6671;SDS011;3372;48.690;12.362;2022-12-13T15:59:05;19.13;;;10.67;;
6671;SDS011;3372;48.690;12.362;2022-12-13T16:01:55;19.80;;;11.35;;
6671;SDS011;3372;48.690;12.362;2022-12-13T16:04:31;22.10;;;10.10;;
6671;SDS011;3372;48.690;12.362;2022-12-13T16:06:57;23.00;;;9.80;;
6671;SDS011;3372;48.690;12.362;2022-12-13T16:09:25;18.87;;;10.37;;
6671;SDS011;3372;48.690;12.362;2022-12-13T16:11:54;22.47;;;10.93;;
6671;SDS011;3372;48.690;12.362;2022-12-13T16:16:51;31.23;;;16.00;;
6671;SDS011;3372;48.690;12.362;2022-12-13T16:19:18;30.20;;;14.53;;
6671;SDS011;3372;48.690;12.362;2022-12-13T16:21:44;34.67;;;19.03;;
6671;SDS011;3372;48.690;12.362;2022-12-13T16:24:10;31.13;;;16.40;;
6671;SDS011;3372;48.690;12.362;2022-12-13T16:26:35;31.33;;;19.00;;
6671;SDS011;3372;48.690;12.362;2022-12-13T16:29:04;31.80;;;17.20;;
6671;SDS011;3372;48.690;12.362;2022-12-13T16:31:34;37.27;;;20.00;;
6671;SDS011;3372;48.690;12.362;2022-12-13T16:34:00;27.83;;;16.80;;
6671;SDS011;3372;48.690;12.362;2022-12-13T16:36:26;28.53;;;16.77;;
6671;SDS011;3372;48.690;12.362;2022-12-13T16:38:52;33.33;;;18.50;;
6671;SDS011;3372;48.690;12.362;2022-12-13T16:41:18;30.70;;;19.00;;
6671;SDS011;3372;48.690;12.362;2022-12-13T16:43:55;39.73;;;20.77;;
6671;SDS011;3372;48.690;12.362;2022-12-13T16:46:24;37.33;;;20.77;;
6671;SDS011;3372;48.690;12.362;2022-12-13T16:48:50;41.23;;;23.80;;
6671;SDS011;3372;48.690;12.362;2022-12-13T16:51:16;40.63;;;22.00;;
6671;SDS011;3372;48.690;12.362;2022-12-13T16:53:42;42.60;;;23.80;;
6671;SDS011;3372;48.690;12.362;2022-12-13T16:56:08;46.27;;;25.63;;
6671;SDS011;3372;48.690;12.362;2022-12-13T16:58:40;47.20;;;25.97;;